Portada
METAR-TAF:

METAR-TAF

Aeroports :

Tabuk, Aràbia Saudita

latitud: 28-22N, longitud: 036-36E, altitud: 778 m

Observació

L'informe es va fer fa 1 hora i 0 minuts, a les 03:00 UTC
Vent 4 kt del Sud/Sud-Est
Temperatura 24°C
Humitat 24%
Pressió 1010 hPa
Visibilitat 10 km o més
sense núvols per sota de 1500 mi sense presència de cumulonimbus.

METAR: OETB 240300Z 16004KT CAVOK 24/02 Q1010 NOSIG

Hora: 07:00 (04:00 UTC)

Pronòstic

L'informe es va fer fa 5 hores i 0 minuts, a les 23:00 UTC
Pronòstic vàlid del 24 a les 00 UTC al 25 a les 06 UTC
Vent 4 kt del Oest/Sud-Oest
Visibilitat 10 km o més
sense núvols per sota de 1500 mi sense presència de cumulonimbus.
Evolucionant progressivament
l' 24 a les 06 UTC al 24 a les 08 UTC
Vent 12 kt del Nord/Nord-Oest
Evolucionant progressivament
l' 24 a les 20 UTC al 24 a les 22 UTC
Vent 4 kt del Oest

TAF: OETB 232300Z 2400/2506 25004KT CAVOK BECMG 2406/2408 34012KT BECMG 2420/2422 27004KT

Observacions i pronòstics meteorològics de més de 4000 aeroports (METAR i TAF).

Les estacions disponibles són els punts grocs i vermells al mapa.

Posi el ratolí al punt desitjat per veure el nom de l'estació.

Feu clic per veure les observacions i els pronòstics meteorològics.

Per canviar el mapa: feu clic els botons verds amb una creu de color negre per apropar; al botó verd amb un guió per allunyar la imatge; o en les fletxes verdes per a mapes adjacents.


METAR-TAF: